sensor_id;sensor_type;location;lat;lon;timestamp;pressure;altitude;pressure_sealevel;temperature;humidity
41222;BME280;26952;42.884;23.918;2022-12-20T00:01:51;97829.59;;;-2.33;100.00
41222;BME280;26952;42.884;23.918;2022-12-20T00:04:16;97821.97;;;-2.37;100.00
41222;BME280;26952;42.884;23.918;2022-12-20T00:06:41;97815.72;;;-2.30;100.00
41222;BME280;26952;42.884;23.918;2022-12-20T00:09:08;97827.72;;;-2.28;100.00
41222;BME280;26952;42.884;23.918;2022-12-20T00:11:34;97839.97;;;-2.33;100.00
41222;BME280;26952;42.884;23.918;2022-12-20T00:14:00;97839.63;;;-2.21;100.00
41222;BME280;26952;42.884;23.918;2022-12-20T00:16:27;97810.66;;;-2.35;100.00
41222;BME280;26952;42.884;23.918;2022-12-20T00:18:56;97836.56;;;-2.35;100.00
41222;BME280;26952;42.884;23.918;2022-12-20T00:21:22;97842.16;;;-2.19;100.00
41222;BME280;26952;42.884;23.918;2022-12-20T00:23:48;97840.34;;;-2.16;100.00
41222;BME280;26952;42.884;23.918;2022-12-20T00:26:16;97824.63;;;-2.11;100.00
41222;BME280;26952;42.884;23.918;2022-12-20T00:28:42;97833.94;;;-2.06;100.00
41222;BME280;26952;42.884;23.918;2022-12-20T00:31:09;97824.06;;;-2.21;100.00
41222;BME280;26952;42.884;23.918;2022-12-20T00:33:37;97846.78;;;-2.01;100.00
41222;BME280;26952;42.884;23.918;2022-12-20T00:36:03;97842.31;;;-1.98;100.00
41222;BME280;26952;42.884;23.918;2022-12-20T00:38:29;97832.16;;;-2.04;100.00
41222;BME280;26952;42.884;23.918;2022-12-20T00:41:09;97834.97;;;-1.84;100.00
41222;BME280;26952;42.884;23.918;2022-12-20T00:43:36;97836.66;;;-1.83;100.00
41222;BME280;26952;42.884;23.918;2022-12-20T00:46:02;97828.66;;;-1.77;100.00
41222;BME280;26952;42.884;23.918;2022-12-20T00:48:29;97833.91;;;-1.78;100.00
41222;BME280;26952;42.884;23.918;2022-12-20T00:51:02;97825.44;;;-1.83;100.00
41222;BME280;26952;42.884;23.918;2022-12-20T00:53:28;97826.94;;;-1.76;100.00
41222;BME280;26952;42.884;23.918;2022-12-20T00:55:54;97808.72;;;-1.75;100.00
41222;BME280;26952;42.884;23.918;2022-12-20T00:58:20;97811.13;;;-1.69;100.00
41222;BME280;26952;42.884;23.918;2022-12-20T01:00:46;97818.16;;;-1.72;100.00
41222;BME280;26952;42.884;23.918;2022-12-20T01:03:12;97802.06;;;-1.82;100.00
41222;BME280;26952;42.884;23.918;2022-12-20T01:05:37;97824.13;;;-1.70;100.00
41222;BME280;26952;42.884;23.918;2022-12-20T01:08:04;97813.09;;;-1.75;100.00
41222;BME280;26952;42.884;23.918;2022-12-20T01:10:29;97820.16;;;-1.80;100.00
41222;BME280;26952;42.884;23.918;2022-12-20T01:12:55;97805.53;;;-1.83;100.00
41222;BME280;26952;42.884;23.918;2022-12-20T01:15:20;97808.81;;;-1.78;100.00
41222;BME280;26952;42.884;23.918;2022-12-20T01:17:46;97808.16;;;-1.84;100.00
41222;BME280;26952;42.884;23.918;2022-12-20T01:20:11;97809.84;;;-1.83;100.00
41222;BME280;26952;42.884;23.918;2022-12-20T01:22:37;97809.78;;;-1.80;100.00
41222;BME280;26952;42.884;23.918;2022-12-20T01:25:02;97805.78;;;-1.90;100.00
41222;BME280;26952;42.884;23.918;2022-12-20T01:27:28;97800.03;;;-2.00;100.00
41222;BME280;26952;42.884;23.918;2022-12-20T01:29:54;97795.06;;;-2.07;100.00
41222;BME280;26952;42.884;23.918;2022-12-20T01:32:19;97776.41;;;-2.18;100.00
41222;BME280;26952;42.884;23.918;2022-12-20T01:34:45;97800.41;;;-2.12;100.00
41222;BME280;26952;42.884;23.918;2022-12-20T01:37:10;97789.38;;;-2.18;100.00
41222;BME280;26952;42.884;23.918;2022-12-20T01:39:36;97788.94;;;-2.31;100.00
41222;BME280;26952;42.884;23.918;2022-12-20T01:42:01;97789.91;;;-2.35;100.00
41222;BME280;26952;42.884;23.918;2022-12-20T01:46:53;97767.19;;;-2.54;100.00
41222;BME280;26952;42.884;23.918;2022-12-20T01:49:27;97780.13;;;-2.54;100.00
41222;BME280;26952;42.884;23.918;2022-12-20T01:52:04;97772.50;;;-2.59;100.00
41222;BME280;26952;42.884;23.918;2022-12-20T01:54:35;97747.69;;;-2.66;100.00
41222;BME280;26952;42.884;23.918;2022-12-20T01:57:06;97759.66;;;-2.62;100.00
41222;BME280;26952;42.884;23.918;2022-12-20T01:59:35;97755.38;;;-2.63;100.00
41222;BME280;26952;42.884;23.918;2022-12-20T02:02:04;97761.25;;;-2.58;100.00
41222;BME280;26952;42.884;23.918;2022-12-20T02:04:31;97767.81;;;-2.74;100.00
41222;BME280;26952;42.884;23.918;2022-12-20T02:06:57;97754.91;;;-2.77;100.00
41222;BME280;26952;42.884;23.918;2022-12-20T02:09:23;97759.38;;;-2.80;100.00
41222;BME280;26952;42.884;23.918;2022-12-20T02:12:08;97772.88;;;-2.71;100.00
41222;BME280;26952;42.884;23.918;2022-12-20T02:31:50;97728.19;;;-3.07;100.00
41222;BME280;26952;42.884;23.918;2022-12-20T02:34:21;97724.16;;;-3.17;100.00
41222;BME280;26952;42.884;23.918;2022-12-20T02:36:49;97718.03;;;-3.14;100.00
41222;BME280;26952;42.884;23.918;2022-12-20T02:39:14;97716.25;;;-3.12;100.00
41222;BME280;26952;42.884;23.918;2022-12-20T02:42:11;97740.38;;;-3.10;100.00
41222;BME280;26952;42.884;23.918;2022-12-20T02:44:41;97730.44;;;-3.25;100.00
41222;BME280;26952;42.884;23.918;2022-12-20T02:47:30;97732.75;;;-3.15;100.00
41222;BME280;26952;42.884;23.918;2022-12-20T02:49:57;97725.69;;;-3.10;100.00
41222;BME280;26952;42.884;23.918;2022-12-20T02:52:26;97703.34;;;-3.14;100.00
41222;BME280;26952;42.884;23.918;2022-12-20T02:54:52;97709.22;;;-3.07;100.00
41222;BME280;26952;42.884;23.918;2022-12-20T02:57:32;97713.56;;;-3.09;100.00
41222;BME280;26952;42.884;23.918;2022-12-20T03:00:05;97719.31;;;-3.00;100.00
41222;BME280;26952;42.884;23.918;2022-12-20T03:02:33;97706.34;;;-2.98;100.00
41222;BME280;26952;42.884;23.918;2022-12-20T03:05:20;97672.25;;;-3.12;100.00
41222;BME280;26952;42.884;23.918;2022-12-20T03:07:46;97671.28;;;-3.08;100.00
41222;BME280;26952;42.884;23.918;2022-12-20T03:10:12;97696.59;;;-2.90;100.00
41222;BME280;26952;42.884;23.918;2022-12-20T03:12:38;97719.84;;;-2.87;100.00
41222;BME280;26952;42.884;23.918;2022-12-20T03:15:03;97713.59;;;-2.82;100.00
41222;BME280;26952;42.884;23.918;2022-12-20T03:17:29;97703.28;;;-2.83;100.00
41222;BME280;26952;42.884;23.918;2022-12-20T03:19:54;97718.47;;;-2.71;100.00
41222;BME280;26952;42.884;23.918;2022-12-20T03:22:20;97727.69;;;-2.62;100.00
41222;BME280;26952;42.884;23.918;2022-12-20T03:24:45;97720.78;;;-2.62;100.00
41222;BME280;26952;42.884;23.918;2022-12-20T03:27:11;97718.75;;;-2.52;100.00
41222;BME280;26952;42.884;23.918;2022-12-20T03:29:36;97727.88;;;-2.68;100.00
41222;BME280;26952;42.884;23.918;2022-12-20T03:32:02;97715.69;;;-2.93;100.00
41222;BME280;26952;42.884;23.918;2022-12-20T03:34:27;97717.44;;;-2.65;100.00
41222;BME280;26952;42.884;23.918;2022-12-20T03:36:54;97721.84;;;-2.69;100.00
41222;BME280;26952;42.884;23.918;2022-12-20T03:39:19;97723.56;;;-2.68;100.00
41222;BME280;26952;42.884;23.918;2022-12-20T03:41:44;97736.75;;;-2.48;100.00
41222;BME280;26952;42.884;23.918;2022-12-20T03:44:10;97726.84;;;-2.35;100.00
41222;BME280;26952;42.884;23.918;2022-12-20T03:46:35;97724.97;;;-2.58;100.00
41222;BME280;26952;42.884;23.918;2022-12-20T03:49:01;97719.59;;;-2.52;100.00
41222;BME280;26952;42.884;23.918;2022-12-20T03:51:26;97707.50;;;-2.51;100.00
41222;BME280;26952;42.884;23.918;2022-12-20T03:53:51;97731.69;;;-2.25;100.00
41222;BME280;26952;42.884;23.918;2022-12-20T03:56:17;97722.31;;;-2.29;100.00
41222;BME280;26952;42.884;23.918;2022-12-20T03:58:43;97705.22;;;-2.34;100.00
41222;BME280;26952;42.884;23.918;2022-12-20T04:01:19;97705.56;;;-2.45;100.00
41222;BME280;26952;42.884;23.918;2022-12-20T04:03:46;97715.25;;;-2.25;100.00
41222;BME280;26952;42.884;23.918;2022-12-20T04:06:11;97700.34;;;-2.19;100.00
41222;BME280;26952;42.884;23.918;2022-12-20T04:08:36;97706.34;;;-2.17;100.00
41222;BME280;26952;42.884;23.918;2022-12-20T04:11:02;97716.44;;;-2.34;100.00
41222;BME280;26952;42.884;23.918;2022-12-20T04:13:48;97710.13;;;-2.53;100.00
41222;BME280;26952;42.884;23.918;2022-12-20T04:16:17;97694.97;;;-2.65;100.00
41222;BME280;26952;42.884;23.918;2022-12-20T04:18:43;97697.50;;;-2.63;100.00
41222;BME280;26952;42.884;23.918;2022-12-20T04:21:09;97697.56;;;-2.65;100.00
41222;BME280;26952;42.884;23.918;2022-12-20T04:23:36;97697.09;;;-2.50;100.00
41222;BME280;26952;42.884;23.918;2022-12-20T04:26:04;97677.78;;;-2.41;100.00
41222;BME280;26952;42.884;23.918;2022-12-20T04:28:29;97691.31;;;-2.32;100.00
41222;BME280;26952;42.884;23.918;2022-12-20T04:30:55;97679.22;;;-2.33;100.00
41222;BME280;26952;42.884;23.918;2022-12-20T04:33:21;97681.28;;;-2.42;100.00
41222;BME280;26952;42.884;23.918;2022-12-20T04:35:47;97693.78;;;-2.55;100.00
41222;BME280;26952;42.884;23.918;2022-12-20T04:38:12;97697.91;;;-2.77;100.00
41222;BME280;26952;42.884;23.918;2022-12-20T04:40:38;97681.84;;;-2.88;100.00
41222;BME280;26952;42.884;23.918;2022-12-20T04:43:03;97683.97;;;-3.01;100.00
41222;BME280;26952;42.884;23.918;2022-12-20T04:45:28;97691.41;;;-2.90;100.00
41222;BME280;26952;42.884;23.918;2022-12-20T04:47:54;97676.97;;;-2.97;100.00
41222;BME280;26952;42.884;23.918;2022-12-20T04:50:19;97670.13;;;-3.00;100.00
41222;BME280;26952;42.884;23.918;2022-12-20T04:52:44;97681.72;;;-2.84;100.00
41222;BME280;26952;42.884;23.918;2022-12-20T04:55:28;97689.28;;;-2.76;100.00
41222;BME280;26952;42.884;23.918;2022-12-20T04:57:54;97679.94;;;-2.82;100.00
41222;BME280;26952;42.884;23.918;2022-12-20T05:00:20;97675.34;;;-2.73;100.00
41222;BME280;26952;42.884;23.918;2022-12-20T05:02:45;97661.38;;;-2.68;100.00
41222;BME280;26952;42.884;23.918;2022-12-20T05:05:11;97668.75;;;-2.56;100.00
41222;BME280;26952;42.884;23.918;2022-12-20T05:07:36;97661.81;;;-2.55;100.00
41222;BME280;26952;42.884;23.918;2022-12-20T05:10:02;97649.03;;;-2.60;100.00
41222;BME280;26952;42.884;23.918;2022-12-20T05:12:28;97659.50;;;-2.63;100.00
41222;BME280;26952;42.884;23.918;2022-12-20T05:14:53;97641.53;;;-2.69;100.00
41222;BME280;26952;42.884;23.918;2022-12-20T05:17:18;97655.84;;;-2.85;100.00
41222;BME280;26952;42.884;23.918;2022-12-20T05:19:44;97653.47;;;-2.91;100.00
41222;BME280;26952;42.884;23.918;2022-12-20T05:22:10;97654.53;;;-2.98;100.00
41222;BME280;26952;42.884;23.918;2022-12-20T05:24:54;97650.06;;;-2.93;100.00
41222;BME280;26952;42.884;23.918;2022-12-20T05:27:38;97661.19;;;-2.90;100.00
41222;BME280;26952;42.884;23.918;2022-12-20T05:30:04;97671.41;;;-2.85;100.00
41222;BME280;26952;42.884;23.918;2022-12-20T05:32:29;97661.75;;;-2.80;100.00
41222;BME280;26952;42.884;23.918;2022-12-20T05:34:55;97638.47;;;-2.82;100.00
41222;BME280;26952;42.884;23.918;2022-12-20T05:37:20;97654.69;;;-2.75;100.00
41222;BME280;26952;42.884;23.918;2022-12-20T05:39:46;97669.25;;;-2.71;100.00
41222;BME280;26952;42.884;23.918;2022-12-20T05:42:11;97652.94;;;-2.74;100.00
41222;BME280;26952;42.884;23.918;2022-12-20T05:44:36;97667.88;;;-2.55;100.00
41222;BME280;26952;42.884;23.918;2022-12-20T05:47:02;97623.03;;;-2.85;100.00
41222;BME280;26952;42.884;23.918;2022-12-20T05:49:27;97661.88;;;-2.57;100.00
41222;BME280;26952;42.884;23.918;2022-12-20T05:51:53;97662.84;;;-2.61;100.00
41222;BME280;26952;42.884;23.918;2022-12-20T05:54:18;97671.44;;;-2.59;100.00
41222;BME280;26952;42.884;23.918;2022-12-20T05:56:44;97673.63;;;-2.73;100.00
41222;BME280;26952;42.884;23.918;2022-12-20T05:59:09;97680.50;;;-2.72;100.00
41222;BME280;26952;42.884;23.918;2022-12-20T06:01:34;97673.88;;;-2.82;100.00
41222;BME280;26952;42.884;23.918;2022-12-20T06:04:01;97658.50;;;-2.87;100.00
41222;BME280;26952;42.884;23.918;2022-12-20T06:06:26;97665.09;;;-2.76;100.00
41222;BME280;26952;42.884;23.918;2022-12-20T06:08:52;97679.72;;;-2.75;100.00
41222;BME280;26952;42.884;23.918;2022-12-20T06:11:17;97646.69;;;-2.95;100.00
41222;BME280;26952;42.884;23.918;2022-12-20T06:13:42;97680.78;;;-2.81;100.00
41222;BME280;26952;42.884;23.918;2022-12-20T06:16:08;97683.31;;;-2.79;100.00
41222;BME280;26952;42.884;23.918;2022-12-20T06:18:33;97686.38;;;-2.67;100.00
41222;BME280;26952;42.884;23.918;2022-12-20T06:20:59;97685.19;;;-2.57;100.00
41222;BME280;26952;42.884;23.918;2022-12-20T06:23:24;97674.84;;;-2.57;100.00
41222;BME280;26952;42.884;23.918;2022-12-20T06:25:50;97686.72;;;-2.50;100.00
41222;BME280;26952;42.884;23.918;2022-12-20T06:28:15;97680.63;;;-2.49;100.00
41222;BME280;26952;42.884;23.918;2022-12-20T06:30:50;97685.06;;;-2.26;100.00
41222;BME280;26952;42.884;23.918;2022-12-20T06:33:16;97670.47;;;-2.29;100.00
41222;BME280;26952;42.884;23.918;2022-12-20T06:35:41;97658.19;;;-2.24;100.00
41222;BME280;26952;42.884;23.918;2022-12-20T06:38:06;97670.53;;;-2.06;100.00
41222;BME280;26952;42.884;23.918;2022-12-20T06:40:32;97662.03;;;-2.09;100.00
41222;BME280;26952;42.884;23.918;2022-12-20T06:42:57;97664.25;;;-1.99;100.00
41222;BME280;26952;42.884;23.918;2022-12-20T06:45:22;97669.31;;;-1.96;100.00
41222;BME280;26952;42.884;23.918;2022-12-20T06:47:48;97662.69;;;-2.04;100.00
41222;BME280;26952;42.884;23.918;2022-12-20T06:50:13;97643.69;;;-2.29;100.00
41222;BME280;26952;42.884;23.918;2022-12-20T06:52:39;97658.41;;;-2.05;100.00
41222;BME280;26952;42.884;23.918;2022-12-20T06:55:05;97648.56;;;-1.96;100.00
41222;BME280;26952;42.884;23.918;2022-12-20T06:57:30;97648.41;;;-1.91;100.00
41222;BME280;26952;42.884;23.918;2022-12-20T06:59:56;97633.69;;;-1.91;100.00
41222;BME280;26952;42.884;23.918;2022-12-20T07:02:21;97637.31;;;-1.95;100.00
41222;BME280;26952;42.884;23.918;2022-12-20T07:04:46;97646.38;;;-1.82;100.00
41222;BME280;26952;42.884;23.918;2022-12-20T07:07:12;97638.53;;;-1.80;100.00
41222;BME280;26952;42.884;23.918;2022-12-20T07:09:38;97636.91;;;-1.60;100.00
41222;BME280;26952;42.884;23.918;2022-12-20T07:12:06;97627.13;;;-1.53;100.00
41222;BME280;26952;42.884;23.918;2022-12-20T07:14:32;97633.50;;;-1.38;100.00
41222;BME280;26952;42.884;23.918;2022-12-20T07:16:57;97640.81;;;-1.25;100.00
41222;BME280;26952;42.884;23.918;2022-12-20T07:19:23;97636.25;;;-1.20;100.00
41222;BME280;26952;42.884;23.918;2022-12-20T07:21:48;97635.81;;;-1.08;100.00
41222;BME280;26952;42.884;23.918;2022-12-20T07:24:14;97639.44;;;-0.90;100.00
41222;BME280;26952;42.884;23.918;2022-12-20T07:26:39;97630.78;;;-0.89;100.00
41222;BME280;26952;42.884;23.918;2022-12-20T07:29:05;97627.19;;;-0.87;100.00
41222;BME280;26952;42.884;23.918;2022-12-20T07:31:30;97617.78;;;-0.89;100.00
41222;BME280;26952;42.884;23.918;2022-12-20T07:33:56;97607.38;;;-0.89;100.00
41222;BME280;26952;42.884;23.918;2022-12-20T07:36:21;97622.28;;;-0.73;100.00
41222;BME280;26952;42.884;23.918;2022-12-20T07:38:47;97617.94;;;-0.72;100.00
41222;BME280;26952;42.884;23.918;2022-12-20T07:41:15;97623.63;;;-0.84;100.00
41222;BME280;26952;42.884;23.918;2022-12-20T07:43:42;97626.13;;;-0.81;100.00
41222;BME280;26952;42.884;23.918;2022-12-20T07:46:09;97619.13;;;-0.81;100.00
41222;BME280;26952;42.884;23.918;2022-12-20T07:48:36;97613.34;;;-0.87;100.00
41222;BME280;26952;42.884;23.918;2022-12-20T07:51:07;97615.88;;;-0.86;100.00
41222;BME280;26952;42.884;23.918;2022-12-20T07:53:36;97606.63;;;-1.14;100.00
41222;BME280;26952;42.884;23.918;2022-12-20T07:56:04;97621.13;;;-1.09;100.00
41222;BME280;26952;42.884;23.918;2022-12-20T07:58:32;97608.41;;;-1.38;100.00
41222;BME280;26952;42.884;23.918;2022-12-20T08:01:00;97618.72;;;-1.60;100.00
41222;BME280;26952;42.884;23.918;2022-12-20T08:03:37;97606.28;;;-1.75;100.00
41222;BME280;26952;42.884;23.918;2022-12-20T08:06:06;97610.81;;;-1.57;100.00
41222;BME280;26952;42.884;23.918;2022-12-20T08:08:34;97621.66;;;-1.22;100.00
41222;BME280;26952;42.884;23.918;2022-12-20T08:11:01;97621.19;;;-0.89;100.00
41222;BME280;26952;42.884;23.918;2022-12-20T08:13:27;97606.81;;;-0.76;100.00
41222;BME280;26952;42.884;23.918;2022-12-20T08:15:53;97605.13;;;-0.77;100.00
41222;BME280;26952;42.884;23.918;2022-12-20T08:18:18;97603.00;;;-1.10;100.00
41222;BME280;26952;42.884;23.918;2022-12-20T08:20:43;97585.41;;;-1.25;100.00
41222;BME280;26952;42.884;23.918;2022-12-20T08:23:09;97595.91;;;-1.28;100.00
41222;BME280;26952;42.884;23.918;2022-12-20T08:25:34;97601.13;;;-1.28;100.00
41222;BME280;26952;42.884;23.918;2022-12-20T08:28:00;97589.31;;;-1.37;100.00
41222;BME280;26952;42.884;23.918;2022-12-20T08:30:27;97604.50;;;-1.26;100.00
41222;BME280;26952;42.884;23.918;2022-12-20T08:32:53;97583.81;;;-1.29;100.00
41222;BME280;26952;42.884;23.918;2022-12-20T08:35:18;97590.38;;;-1.19;100.00
41222;BME280;26952;42.884;23.918;2022-12-20T08:37:43;97580.84;;;-0.97;100.00
41222;BME280;26952;42.884;23.918;2022-12-20T08:40:09;97593.47;;;-0.67;100.00
41222;BME280;26952;42.884;23.918;2022-12-20T08:42:35;97591.47;;;-0.60;100.00
41222;BME280;26952;42.884;23.918;2022-12-20T08:45:00;97599.16;;;-0.37;100.00
41222;BME280;26952;42.884;23.918;2022-12-20T08:47:28;97584.84;;;-0.27;100.00
41222;BME280;26952;42.884;23.918;2022-12-20T08:49:53;97578.75;;;-0.26;100.00
41222;BME280;26952;42.884;23.918;2022-12-20T08:52:18;97587.25;;;-0.23;100.00
41222;BME280;26952;42.884;23.918;2022-12-20T08:54:44;97598.16;;;-0.13;100.00
41222;BME280;26952;42.884;23.918;2022-12-20T08:57:10;97587.84;;;-0.16;100.00
41222;BME280;26952;42.884;23.918;2022-12-20T08:59:35;97574.13;;;-0.20;100.00
41222;BME280;26952;42.884;23.918;2022-12-20T09:02:00;97579.19;;;0.03;100.00
41222;BME280;26952;42.884;23.918;2022-12-20T09:04:26;97575.78;;;0.22;100.00
41222;BME280;26952;42.884;23.918;2022-12-20T09:06:51;97574.03;;;0.22;100.00
41222;BME280;26952;42.884;23.918;2022-12-20T09:09:16;97573.06;;;0.43;100.00
41222;BME280;26952;42.884;23.918;2022-12-20T09:11:42;97557.53;;;0.42;100.00
41222;BME280;26952;42.884;23.918;2022-12-20T09:14:08;97535.34;;;0.33;100.00
41222;BME280;26952;42.884;23.918;2022-12-20T09:16:33;97547.88;;;0.44;100.00
41222;BME280;26952;42.884;23.918;2022-12-20T09:19:00;97561.47;;;0.50;100.00
41222;BME280;26952;42.884;23.918;2022-12-20T09:21:26;97546.91;;;0.65;100.00
41222;BME280;26952;42.884;23.918;2022-12-20T09:23:53;97549.69;;;0.60;100.00
41222;BME280;26952;42.884;23.918;2022-12-20T09:26:20;97541.13;;;0.58;100.00
41222;BME280;26952;42.884;23.918;2022-12-20T09:28:47;97526.31;;;0.77;100.00
41222;BME280;26952;42.884;23.918;2022-12-20T09:31:14;97536.13;;;0.72;100.00
41222;BME280;26952;42.884;23.918;2022-12-20T09:33:40;97536.75;;;0.59;100.00
41222;BME280;26952;42.884;23.918;2022-12-20T09:36:10;97522.13;;;0.56;100.00
41222;BME280;26952;42.884;23.918;2022-12-20T09:38:35;97533.31;;;0.58;100.00
41222;BME280;26952;42.884;23.918;2022-12-20T09:41:03;97518.19;;;0.66;100.00
41222;BME280;26952;42.884;23.918;2022-12-20T09:43:29;97503.72;;;0.78;100.00
41222;BME280;26952;42.884;23.918;2022-12-20T09:45:59;97504.88;;;0.89;100.00
41222;BME280;26952;42.884;23.918;2022-12-20T09:48:31;97501.84;;;0.98;100.00
41222;BME280;26952;42.884;23.918;2022-12-20T09:51:13;97506.72;;;1.23;100.00
41222;BME280;26952;42.884;23.918;2022-12-20T09:54:05;97489.91;;;1.28;100.00
41222;BME280;26952;42.884;23.918;2022-12-20T09:56:36;97491.00;;;1.24;100.00
41222;BME280;26952;42.884;23.918;2022-12-20T09:59:10;97478.47;;;1.48;100.00
41222;BME280;26952;42.884;23.918;2022-12-20T10:01:37;97467.81;;;1.70;100.00
41222;BME280;26952;42.884;23.918;2022-12-20T10:20:36;97437.91;;;2.08;93.99
41222;BME280;26952;42.884;23.918;2022-12-20T10:23:16;97423.44;;;2.18;94.75
41222;BME280;26952;42.884;23.918;2022-12-20T10:25:51;97412.13;;;2.17;93.47
41222;BME280;26952;42.884;23.918;2022-12-20T10:28:17;97417.13;;;2.22;96.15
41222;BME280;26952;42.884;23.918;2022-12-20T10:30:44;97407.06;;;2.14;96.78
41222;BME280;26952;42.884;23.918;2022-12-20T10:33:30;97400.75;;;2.34;95.73
41222;BME280;26952;42.884;23.918;2022-12-20T10:36:23;97394.97;;;2.44;94.42
41222;BME280;26952;42.884;23.918;2022-12-20T10:38:55;97379.97;;;2.48;92.03
41222;BME280;26952;42.884;23.918;2022-12-20T10:41:24;97374.38;;;2.54;94.54
41222;BME280;26952;42.884;23.918;2022-12-20T10:43:59;97373.34;;;2.72;93.60
41222;BME280;26952;42.884;23.918;2022-12-20T10:46:37;97371.31;;;2.77;89.98
41222;BME280;26952;42.884;23.918;2022-12-20T10:49:30;97364.06;;;2.66;87.93
41222;BME280;26952;42.884;23.918;2022-12-20T10:52:16;97364.97;;;2.81;91.31
41222;BME280;26952;42.884;23.918;2022-12-20T10:54:46;97343.59;;;2.88;87.24
41222;BME280;26952;42.884;23.918;2022-12-20T10:57:19;97332.69;;;2.82;90.06
41222;BME280;26952;42.884;23.918;2022-12-20T10:59:57;97348.09;;;2.87;89.91
41222;BME280;26952;42.884;23.918;2022-12-20T11:02:32;97336.50;;;2.91;87.51
41222;BME280;26952;42.884;23.918;2022-12-20T11:04:59;97348.78;;;3.04;86.12
41222;BME280;26952;42.884;23.918;2022-12-20T11:07:31;97332.72;;;3.10;87.90
41222;BME280;26952;42.884;23.918;2022-12-20T11:09:58;97331.63;;;3.14;88.72
41222;BME280;26952;42.884;23.918;2022-12-20T11:12:24;97315.84;;;3.16;89.18
41222;BME280;26952;42.884;23.918;2022-12-20T11:15:06;97332.75;;;3.38;86.24
41222;BME280;26952;42.884;23.918;2022-12-20T11:17:36;97323.22;;;3.37;85.62
41222;BME280;26952;42.884;23.918;2022-12-20T11:31:47;97315.75;;;3.31;82.42
41222;BME280;26952;42.884;23.918;2022-12-20T11:45:30;97287.31;;;3.67;76.85
41222;BME280;26952;42.884;23.918;2022-12-20T11:53:39;97271.41;;;3.70;76.77
41222;BME280;26952;42.884;23.918;2022-12-20T11:56:20;97262.91;;;3.67;76.57
41222;BME280;26952;42.884;23.918;2022-12-20T12:01:20;97244.31;;;3.57;77.83
41222;BME280;26952;42.884;23.918;2022-12-20T12:06:27;97275.91;;;3.82;73.04
41222;BME280;26952;42.884;23.918;2022-12-20T12:11:35;97254.84;;;4.10;75.80
41222;BME280;26952;42.884;23.918;2022-12-20T12:14:04;97266.78;;;3.33;76.06
41222;BME280;26952;42.884;23.918;2022-12-20T12:16:36;97278.91;;;3.34;77.54
41222;BME280;26952;42.884;23.918;2022-12-20T12:19:08;97258.34;;;3.00;80.77
41222;BME280;26952;42.884;23.918;2022-12-20T12:21:51;97258.66;;;2.66;84.17
41222;BME280;26952;42.884;23.918;2022-12-20T12:26:51;97266.25;;;2.70;84.78
41222;BME280;26952;42.884;23.918;2022-12-20T12:29:18;97266.16;;;2.72;87.14
41222;BME280;26952;42.884;23.918;2022-12-20T12:32:01;97249.34;;;2.76;85.09
41222;BME280;26952;42.884;23.918;2022-12-20T12:40:46;97256.41;;;3.18;85.92
41222;BME280;26952;42.884;23.918;2022-12-20T12:46:09;97249.47;;;2.15;97.59
41222;BME280;26952;42.884;23.918;2022-12-20T12:48:54;97252.75;;;2.03;100.00
41222;BME280;26952;42.884;23.918;2022-12-20T12:51:35;97262.03;;;2.09;100.00
41222;BME280;26952;42.884;23.918;2022-12-20T12:54:21;97274.16;;;2.10;100.00
41222;BME280;26952;42.884;23.918;2022-12-20T12:56:48;97257.25;;;1.86;100.00
41222;BME280;26952;42.884;23.918;2022-12-20T13:04:29;97261.69;;;1.53;100.00
41222;BME280;26952;42.884;23.918;2022-12-20T13:07:02;97263.03;;;1.28;100.00
41222;BME280;26952;42.884;23.918;2022-12-20T13:11:55;97265.34;;;1.17;100.00
41222;BME280;26952;42.884;23.918;2022-12-20T13:19:36;97237.25;;;0.57;100.00
41222;BME280;26952;42.884;23.918;2022-12-20T13:24:51;97240.06;;;0.37;100.00
41222;BME280;26952;42.884;23.918;2022-12-20T13:27:37;97249.84;;;0.49;100.00
41222;BME280;26952;42.884;23.918;2022-12-20T13:37:59;97242.50;;;0.40;100.00
41222;BME280;26952;42.884;23.918;2022-12-20T13:41:35;97243.72;;;0.33;100.00
41222;BME280;26952;42.884;23.918;2022-12-20T13:43:36;97241.03;;;0.18;100.00
41222;BME280;26952;42.884;23.918;2022-12-20T13:46:14;97234.47;;;-0.08;100.00
41222;BME280;26952;42.884;23.918;2022-12-20T13:48:55;97230.25;;;0.08;100.00
41222;BME280;26952;42.884;23.918;2022-12-20T13:51:24;97244.53;;;0.17;100.00
41222;BME280;26952;42.884;23.918;2022-12-20T13:53:55;97240.72;;;0.24;100.00
41222;BME280;26952;42.884;23.918;2022-12-20T13:56:34;97236.44;;;0.23;100.00
41222;BME280;26952;42.884;23.918;2022-12-20T13:59:06;97235.91;;;0.16;100.00
41222;BME280;26952;42.884;23.918;2022-12-20T14:01:46;97180.31;;;-0.17;100.00
41222;BME280;26952;42.884;23.918;2022-12-20T14:04:12;97209.63;;;0.03;100.00
41222;BME280;26952;42.884;23.918;2022-12-20T14:06:38;97228.22;;;-0.04;100.00
41222;BME280;26952;42.884;23.918;2022-12-20T14:09:25;97217.19;;;-0.09;100.00
41222;BME280;26952;42.884;23.918;2022-12-20T14:11:51;97200.88;;;-0.30;100.00
41222;BME280;26952;42.884;23.918;2022-12-20T14:14:16;97216.06;;;-0.39;100.00
41222;BME280;26952;42.884;23.918;2022-12-20T14:16:41;97212.22;;;-0.68;100.00
41222;BME280;26952;42.884;23.918;2022-12-20T14:19:13;97208.25;;;-0.75;100.00
41222;BME280;26952;42.884;23.918;2022-12-20T14:21:41;97192.25;;;-0.84;100.00
41222;BME280;26952;42.884;23.918;2022-12-20T14:24:19;97212.66;;;-0.95;100.00
41222;BME280;26952;42.884;23.918;2022-12-20T14:26:47;97206.63;;;-0.96;100.00
41222;BME280;26952;42.884;23.918;2022-12-20T14:29:19;97209.88;;;-0.91;100.00
41222;BME280;26952;42.884;23.918;2022-12-20T14:31:49;97202.25;;;-0.95;100.00
41222;BME280;26952;42.884;23.918;2022-12-20T14:34:19;97199.50;;;-0.92;100.00
41222;BME280;26952;42.884;23.918;2022-12-20T14:36:47;97196.72;;;-0.88;100.00
41222;BME280;26952;42.884;23.918;2022-12-20T14:39:32;97196.03;;;-0.91;100.00